sensor_id;sensor_type;location;lat;lon;timestamp;P1;durP1;ratioP1;P2;durP2;ratioP2
16025;SDS011;8117;52.488;13.460;2023-10-09T00:01:40;1.97;;;0.63;;
16025;SDS011;8117;52.488;13.460;2023-10-09T00:04:09;1.90;;;0.87;;
16025;SDS011;8117;52.488;13.460;2023-10-09T00:06:36;0.73;;;0.73;;
16025;SDS011;8117;52.488;13.460;2023-10-09T00:09:03;1.10;;;0.90;;
16025;SDS011;8117;52.488;13.460;2023-10-09T00:11:42;1.73;;;1.07;;
16025;SDS011;8117;52.488;13.460;2023-10-09T00:14:10;1.93;;;1.17;;
16025;SDS011;8117;52.488;13.460;2023-10-09T00:16:36;2.20;;;1.10;;
16025;SDS011;8117;52.488;13.460;2023-10-09T00:19:09;1.77;;;0.87;;
16025;SDS011;8117;52.488;13.460;2023-10-09T00:21:42;0.93;;;0.87;;
16025;SDS011;8117;52.488;13.460;2023-10-09T00:24:09;1.03;;;0.87;;
16025;SDS011;8117;52.488;13.460;2023-10-09T00:26:40;1.07;;;1.07;;
16025;SDS011;8117;52.488;13.460;2023-10-09T00:29:11;1.10;;;1.00;;
16025;SDS011;8117;52.488;13.460;2023-10-09T00:31:47;1.97;;;1.27;;
16025;SDS011;8117;52.488;13.460;2023-10-09T00:34:21;1.63;;;0.73;;
16025;SDS011;8117;52.488;13.460;2023-10-09T00:36:51;0.67;;;0.67;;
16025;SDS011;8117;52.488;13.460;2023-10-09T00:39:19;1.20;;;0.93;;
16025;SDS011;8117;52.488;13.460;2023-10-09T00:42:07;1.33;;;1.20;;
16025;SDS011;8117;52.488;13.460;2023-10-09T00:44:37;1.80;;;0.90;;
16025;SDS011;8117;52.488;13.460;2023-10-09T00:47:05;1.80;;;1.03;;
16025;SDS011;8117;52.488;13.460;2023-10-09T00:49:54;1.13;;;0.97;;
16025;SDS011;8117;52.488;13.460;2023-10-09T00:52:26;1.17;;;0.83;;
16025;SDS011;8117;52.488;13.460;2023-10-09T00:54:58;1.37;;;1.10;;
16025;SDS011;8117;52.488;13.460;2023-10-09T00:57:33;1.47;;;0.90;;
16025;SDS011;8117;52.488;13.460;2023-10-09T01:00:03;1.87;;;1.00;;
16025;SDS011;8117;52.488;13.460;2023-10-09T01:02:38;1.10;;;0.77;;
16025;SDS011;8117;52.488;13.460;2023-10-09T01:05:09;0.90;;;0.90;;
16025;SDS011;8117;52.488;13.460;2023-10-09T01:07:45;1.30;;;0.90;;
16025;SDS011;8117;52.488;13.460;2023-10-09T01:10:12;1.77;;;1.10;;
16025;SDS011;8117;52.488;13.460;2023-10-09T01:12:41;0.77;;;0.77;;
16025;SDS011;8117;52.488;13.460;2023-10-09T01:15:09;1.03;;;0.60;;
16025;SDS011;8117;52.488;13.460;2023-10-09T01:17:43;0.93;;;0.80;;
16025;SDS011;8117;52.488;13.460;2023-10-09T01:20:21;1.43;;;1.33;;
16025;SDS011;8117;52.488;13.460;2023-10-09T01:23:02;2.20;;;0.80;;
16025;SDS011;8117;52.488;13.460;2023-10-09T01:25:29;0.90;;;0.70;;
16025;SDS011;8117;52.488;13.460;2023-10-09T01:28:09;1.30;;;0.83;;
16025;SDS011;8117;52.488;13.460;2023-10-09T01:30:35;1.43;;;0.93;;
16025;SDS011;8117;52.488;13.460;2023-10-09T01:33:07;1.10;;;0.70;;
16025;SDS011;8117;52.488;13.460;2023-10-09T01:35:47;1.63;;;0.90;;
16025;SDS011;8117;52.488;13.460;2023-10-09T01:38:17;5.93;;;0.97;;
16025;SDS011;8117;52.488;13.460;2023-10-09T01:40:55;1.17;;;1.07;;
16025;SDS011;8117;52.488;13.460;2023-10-09T01:43:28;0.67;;;0.67;;
16025;SDS011;8117;52.488;13.460;2023-10-09T01:45:59;1.80;;;0.90;;
16025;SDS011;8117;52.488;13.460;2023-10-09T01:48:26;0.73;;;0.60;;
16025;SDS011;8117;52.488;13.460;2023-10-09T01:50:53;2.00;;;1.23;;
16025;SDS011;8117;52.488;13.460;2023-10-09T01:53:27;1.10;;;0.83;;
16025;SDS011;8117;52.488;13.460;2023-10-09T01:55:55;0.83;;;0.77;;
16025;SDS011;8117;52.488;13.460;2023-10-09T01:58:24;1.13;;;0.97;;
16025;SDS011;8117;52.488;13.460;2023-10-09T02:00:52;1.10;;;1.00;;
16025;SDS011;8117;52.488;13.460;2023-10-09T02:03:21;0.90;;;0.70;;
16025;SDS011;8117;52.488;13.460;2023-10-09T02:05:49;2.53;;;1.03;;
16025;SDS011;8117;52.488;13.460;2023-10-09T02:08:18;0.60;;;0.60;;
16025;SDS011;8117;52.488;13.460;2023-10-09T02:10:48;1.47;;;0.70;;
16025;SDS011;8117;52.488;13.460;2023-10-09T02:13:15;1.53;;;0.90;;
16025;SDS011;8117;52.488;13.460;2023-10-09T02:15:43;0.60;;;0.60;;
16025;SDS011;8117;52.488;13.460;2023-10-09T02:18:24;0.60;;;0.60;;
16025;SDS011;8117;52.488;13.460;2023-10-09T02:21:07;1.07;;;0.57;;
16025;SDS011;8117;52.488;13.460;2023-10-09T02:23:39;1.90;;;0.70;;
16025;SDS011;8117;52.488;13.460;2023-10-09T02:26:13;0.80;;;0.80;;
16025;SDS011;8117;52.488;13.460;2023-10-09T02:28:44;2.37;;;1.47;;
16025;SDS011;8117;52.488;13.460;2023-10-09T02:31:17;1.50;;;0.77;;
16025;SDS011;8117;52.488;13.460;2023-10-09T02:33:47;1.83;;;0.87;;
16025;SDS011;8117;52.488;13.460;2023-10-09T02:36:16;3.37;;;0.70;;
16025;SDS011;8117;52.488;13.460;2023-10-09T02:38:43;1.00;;;0.87;;
16025;SDS011;8117;52.488;13.460;2023-10-09T02:41:15;1.13;;;1.03;;
16025;SDS011;8117;52.488;13.460;2023-10-09T02:43:58;1.57;;;0.50;;
16025;SDS011;8117;52.488;13.460;2023-10-09T02:46:35;1.63;;;1.10;;
16025;SDS011;8117;52.488;13.460;2023-10-09T02:49:05;1.37;;;0.90;;
16025;SDS011;8117;52.488;13.460;2023-10-09T02:51:34;2.40;;;0.90;;
16025;SDS011;8117;52.488;13.460;2023-10-09T02:54:07;1.00;;;0.93;;
16025;SDS011;8117;52.488;13.460;2023-10-09T02:56:44;2.03;;;1.13;;
16025;SDS011;8117;52.488;13.460;2023-10-09T02:59:12;2.23;;;1.00;;
16025;SDS011;8117;52.488;13.460;2023-10-09T03:01:42;2.03;;;1.00;;
16025;SDS011;8117;52.488;13.460;2023-10-09T03:04:09;2.10;;;1.37;;
16025;SDS011;8117;52.488;13.460;2023-10-09T03:06:39;1.17;;;0.90;;
16025;SDS011;8117;52.488;13.460;2023-10-09T03:09:17;1.60;;;0.97;;
16025;SDS011;8117;52.488;13.460;2023-10-09T03:11:46;3.80;;;1.33;;
16025;SDS011;8117;52.488;13.460;2023-10-09T03:14:18;5.30;;;1.37;;
16025;SDS011;8117;52.488;13.460;2023-10-09T03:16:47;1.97;;;1.10;;
16025;SDS011;8117;52.488;13.460;2023-10-09T03:19:14;1.40;;;0.97;;
16025;SDS011;8117;52.488;13.460;2023-10-09T03:21:41;0.87;;;0.87;;
16025;SDS011;8117;52.488;13.460;2023-10-09T03:24:08;1.23;;;0.80;;
16025;SDS011;8117;52.488;13.460;2023-10-09T03:26:38;1.77;;;1.43;;
16025;SDS011;8117;52.488;13.460;2023-10-09T03:29:06;3.47;;;1.43;;
16025;SDS011;8117;52.488;13.460;2023-10-09T03:31:35;0.93;;;0.80;;
16025;SDS011;8117;52.488;13.460;2023-10-09T03:34:02;1.10;;;0.77;;
16025;SDS011;8117;52.488;13.460;2023-10-09T03:36:33;0.83;;;0.83;;
16025;SDS011;8117;52.488;13.460;2023-10-09T03:39:03;1.63;;;0.93;;
16025;SDS011;8117;52.488;13.460;2023-10-09T03:41:43;2.00;;;1.20;;
16025;SDS011;8117;52.488;13.460;2023-10-09T03:44:13;2.40;;;0.93;;
16025;SDS011;8117;52.488;13.460;2023-10-09T03:46:43;1.27;;;1.17;;
16025;SDS011;8117;52.488;13.460;2023-10-09T03:49:16;2.50;;;1.27;;
16025;SDS011;8117;52.488;13.460;2023-10-09T03:51:48;0.90;;;0.90;;
16025;SDS011;8117;52.488;13.460;2023-10-09T03:54:18;4.57;;;2.23;;
16025;SDS011;8117;52.488;13.460;2023-10-09T03:56:47;3.47;;;1.80;;
16025;SDS011;8117;52.488;13.460;2023-10-09T03:59:16;2.73;;;1.20;;
16025;SDS011;8117;52.488;13.460;2023-10-09T04:01:46;5.27;;;0.97;;
16025;SDS011;8117;52.488;13.460;2023-10-09T04:04:16;1.93;;;0.93;;
16025;SDS011;8117;52.488;13.460;2023-10-09T04:06:43;1.30;;;0.63;;
16025;SDS011;8117;52.488;13.460;2023-10-09T04:09:11;1.90;;;1.03;;
16025;SDS011;8117;52.488;13.460;2023-10-09T04:11:53;1.83;;;1.13;;
16025;SDS011;8117;52.488;13.460;2023-10-09T04:14:45;1.23;;;0.93;;
16025;SDS011;8117;52.488;13.460;2023-10-09T04:17:15;1.47;;;1.07;;
16025;SDS011;8117;52.488;13.460;2023-10-09T04:19:56;2.63;;;1.90;;
16025;SDS011;8117;52.488;13.460;2023-10-09T04:22:40;3.00;;;0.90;;
16025;SDS011;8117;52.488;13.460;2023-10-09T04:25:15;1.20;;;1.00;;
16025;SDS011;8117;52.488;13.460;2023-10-09T04:27:53;11.83;;;1.63;;
16025;SDS011;8117;52.488;13.460;2023-10-09T04:30:27;1.20;;;1.10;;
16025;SDS011;8117;52.488;13.460;2023-10-09T04:32:54;1.30;;;1.20;;
16025;SDS011;8117;52.488;13.460;2023-10-09T04:35:31;1.20;;;0.80;;
16025;SDS011;8117;52.488;13.460;2023-10-09T04:38:00;1.57;;;1.10;;
16025;SDS011;8117;52.488;13.460;2023-10-09T04:40:31;1.50;;;1.23;;
16025;SDS011;8117;52.488;13.460;2023-10-09T04:43:26;1.93;;;0.80;;
16025;SDS011;8117;52.488;13.460;2023-10-09T04:45:59;2.23;;;1.13;;
16025;SDS011;8117;52.488;13.460;2023-10-09T04:48:41;1.33;;;1.17;;
16025;SDS011;8117;52.488;13.460;2023-10-09T04:51:11;1.03;;;0.80;;
16025;SDS011;8117;52.488;13.460;2023-10-09T04:53:46;2.27;;;1.30;;
16025;SDS011;8117;52.488;13.460;2023-10-09T04:56:22;1.20;;;1.00;;
16025;SDS011;8117;52.488;13.460;2023-10-09T04:58:49;1.60;;;1.00;;
16025;SDS011;8117;52.488;13.460;2023-10-09T05:01:31;2.37;;;1.10;;
16025;SDS011;8117;52.488;13.460;2023-10-09T05:04:10;1.83;;;1.27;;
16025;SDS011;8117;52.488;13.460;2023-10-09T05:07:06;1.23;;;1.13;;
16025;SDS011;8117;52.488;13.460;2023-10-09T05:10:09;1.63;;;1.10;;
16025;SDS011;8117;52.488;13.460;2023-10-09T05:12:58;1.03;;;0.67;;
16025;SDS011;8117;52.488;13.460;2023-10-09T05:15:28;1.97;;;0.87;;
16025;SDS011;8117;52.488;13.460;2023-10-09T05:18:10;1.40;;;0.83;;
16025;SDS011;8117;52.488;13.460;2023-10-09T05:20:41;1.47;;;0.90;;
16025;SDS011;8117;52.488;13.460;2023-10-09T05:23:35;3.10;;;1.03;;
16025;SDS011;8117;52.488;13.460;2023-10-09T05:26:39;1.40;;;0.97;;
16025;SDS011;8117;52.488;13.460;2023-10-09T05:29:51;1.50;;;0.97;;
16025;SDS011;8117;52.488;13.460;2023-10-09T05:32:42;3.47;;;1.00;;
16025;SDS011;8117;52.488;13.460;2023-10-09T05:35:15;1.43;;;0.93;;
16025;SDS011;8117;52.488;13.460;2023-10-09T05:38:01;1.43;;;1.03;;
16025;SDS011;8117;52.488;13.460;2023-10-09T05:40:29;2.23;;;0.90;;
16025;SDS011;8117;52.488;13.460;2023-10-09T05:43:21;2.27;;;0.87;;
16025;SDS011;8117;52.488;13.460;2023-10-09T05:46:11;1.73;;;0.70;;
16025;SDS011;8117;52.488;13.460;2023-10-09T05:49:15;1.67;;;1.03;;
16025;SDS011;8117;52.488;13.460;2023-10-09T05:52:25;0.70;;;0.67;;
16025;SDS011;8117;52.488;13.460;2023-10-09T05:55:30;1.13;;;0.83;;
16025;SDS011;8117;52.488;13.460;2023-10-09T05:58:52;0.97;;;0.70;;
16025;SDS011;8117;52.488;13.460;2023-10-09T06:01:36;1.50;;;1.03;;
16025;SDS011;8117;52.488;13.460;2023-10-09T06:04:27;1.47;;;1.07;;
16025;SDS011;8117;52.488;13.460;2023-10-09T06:07:14;2.37;;;1.40;;
16025;SDS011;8117;52.488;13.460;2023-10-09T06:09:51;1.77;;;1.00;;
16025;SDS011;8117;52.488;13.460;2023-10-09T06:12:18;0.80;;;0.80;;
16025;SDS011;8117;52.488;13.460;2023-10-09T06:15:03;1.03;;;0.87;;
16025;SDS011;8117;52.488;13.460;2023-10-09T06:17:50;0.90;;;0.90;;
16025;SDS011;8117;52.488;13.460;2023-10-09T06:20:17;1.43;;;0.80;;
16025;SDS011;8117;52.488;13.460;2023-10-09T06:23:05;2.87;;;1.23;;
16025;SDS011;8117;52.488;13.460;2023-10-09T06:25:44;1.60;;;0.80;;
16025;SDS011;8117;52.488;13.460;2023-10-09T06:28:19;1.87;;;1.07;;
16025;SDS011;8117;52.488;13.460;2023-10-09T06:30:59;0.77;;;0.50;;
16025;SDS011;8117;52.488;13.460;2023-10-09T06:33:53;1.37;;;0.77;;
16025;SDS011;8117;52.488;13.460;2023-10-09T06:36:54;1.43;;;0.93;;
16025;SDS011;8117;52.488;13.460;2023-10-09T06:46:35;1.07;;;0.80;;
16025;SDS011;8117;52.488;13.460;2023-10-09T06:49:17;0.73;;;0.73;;
16025;SDS011;8117;52.488;13.460;2023-10-09T06:52:10;1.07;;;1.00;;
16025;SDS011;8117;52.488;13.460;2023-10-09T06:54:41;1.30;;;1.00;;
16025;SDS011;8117;52.488;13.460;2023-10-09T06:57:15;2.00;;;1.17;;
16025;SDS011;8117;52.488;13.460;2023-10-09T06:59:59;0.97;;;0.70;;
16025;SDS011;8117;52.488;13.460;2023-10-09T07:02:44;2.33;;;1.10;;
16025;SDS011;8117;52.488;13.460;2023-10-09T07:05:12;2.53;;;0.90;;
16025;SDS011;8117;52.488;13.460;2023-10-09T07:07:45;1.47;;;0.97;;
16025;SDS011;8117;52.488;13.460;2023-10-09T07:10:26;1.73;;;0.67;;
16025;SDS011;8117;52.488;13.460;2023-10-09T07:13:07;1.23;;;1.10;;
16025;SDS011;8117;52.488;13.460;2023-10-09T07:15:42;0.93;;;0.80;;
16025;SDS011;8117;52.488;13.460;2023-10-09T07:18:35;1.07;;;0.80;;
16025;SDS011;8117;52.488;13.460;2023-10-09T07:21:19;0.60;;;0.53;;
16025;SDS011;8117;52.488;13.460;2023-10-09T07:23:55;2.27;;;0.77;;
16025;SDS011;8117;52.488;13.460;2023-10-09T07:26:55;1.47;;;1.10;;
16025;SDS011;8117;52.488;13.460;2023-10-09T07:29:31;1.83;;;0.90;;
16025;SDS011;8117;52.488;13.460;2023-10-09T07:32:14;2.17;;;1.00;;
16025;SDS011;8117;52.488;13.460;2023-10-09T07:35:03;2.10;;;1.17;;
16025;SDS011;8117;52.488;13.460;2023-10-09T07:38:05;0.70;;;0.70;;
16025;SDS011;8117;52.488;13.460;2023-10-09T07:40:34;2.00;;;1.23;;
16025;SDS011;8117;52.488;13.460;2023-10-09T07:46:07;1.60;;;0.87;;
16025;SDS011;8117;52.488;13.460;2023-10-09T07:52:27;1.17;;;0.83;;
16025;SDS011;8117;52.488;13.460;2023-10-09T07:55:23;2.73;;;1.27;;
16025;SDS011;8117;52.488;13.460;2023-10-09T07:58:19;1.10;;;0.70;;
16025;SDS011;8117;52.488;13.460;2023-10-09T08:01:21;2.97;;;1.27;;
16025;SDS011;8117;52.488;13.460;2023-10-09T08:04:24;1.07;;;0.97;;
16025;SDS011;8117;52.488;13.460;2023-10-09T08:07:40;2.20;;;1.30;;
16025;SDS011;8117;52.488;13.460;2023-10-09T08:10:51;1.00;;;1.00;;
16025;SDS011;8117;52.488;13.460;2023-10-09T08:13:55;1.47;;;1.00;;
16025;SDS011;8117;52.488;13.460;2023-10-09T08:17:13;1.77;;;1.07;;
16025;SDS011;8117;52.488;13.460;2023-10-09T08:19:48;1.67;;;1.07;;
16025;SDS011;8117;52.488;13.460;2023-10-09T08:22:35;1.60;;;0.90;;
16025;SDS011;8117;52.488;13.460;2023-10-09T08:25:23;1.40;;;1.30;;
16025;SDS011;8117;52.488;13.460;2023-10-09T08:28:24;1.27;;;0.87;;
16025;SDS011;8117;52.488;13.460;2023-10-09T08:31:29;1.67;;;0.90;;
16025;SDS011;8117;52.488;13.460;2023-10-09T08:34:35;2.80;;;1.03;;
16025;SDS011;8117;52.488;13.460;2023-10-09T08:37:13;1.77;;;1.00;;
16025;SDS011;8117;52.488;13.460;2023-10-09T08:39:56;1.33;;;1.00;;
16025;SDS011;8117;52.488;13.460;2023-10-09T08:42:34;1.53;;;1.03;;
16025;SDS011;8117;52.488;13.460;2023-10-09T08:45:08;2.27;;;1.50;;
16025;SDS011;8117;52.488;13.460;2023-10-09T08:47:40;4.27;;;1.17;;
16025;SDS011;8117;52.488;13.460;2023-10-09T08:50:09;1.70;;;1.43;;
16025;SDS011;8117;52.488;13.460;2023-10-09T08:52:40;1.63;;;1.03;;
16025;SDS011;8117;52.488;13.460;2023-10-09T08:57:58;2.60;;;1.10;;
16025;SDS011;8117;52.488;13.460;2023-10-09T09:00:38;2.03;;;1.30;;
16025;SDS011;8117;52.488;13.460;2023-10-09T09:03:12;1.37;;;0.73;;
16025;SDS011;8117;52.488;13.460;2023-10-09T09:05:57;2.13;;;1.13;;
16025;SDS011;8117;52.488;13.460;2023-10-09T09:08:27;1.50;;;1.17;;
16025;SDS011;8117;52.488;13.460;2023-10-09T09:11:13;1.80;;;1.30;;
16025;SDS011;8117;52.488;13.460;2023-10-09T09:13:43;2.37;;;1.37;;
16025;SDS011;8117;52.488;13.460;2023-10-09T09:16:19;1.87;;;1.33;;
16025;SDS011;8117;52.488;13.460;2023-10-09T09:18:55;3.03;;;1.73;;
16025;SDS011;8117;52.488;13.460;2023-10-09T09:21:32;1.57;;;0.87;;
16025;SDS011;8117;52.488;13.460;2023-10-09T09:24:09;3.83;;;1.67;;
16025;SDS011;8117;52.488;13.460;2023-10-09T09:27:01;2.23;;;1.10;;
16025;SDS011;8117;52.488;13.460;2023-10-09T09:29:59;2.13;;;1.40;;
16025;SDS011;8117;52.488;13.460;2023-10-09T09:32:41;1.93;;;1.27;;
16025;SDS011;8117;52.488;13.460;2023-10-09T09:35:41;2.00;;;1.30;;
16025;SDS011;8117;52.488;13.460;2023-10-09T09:38:39;3.70;;;1.20;;
16025;SDS011;8117;52.488;13.460;2023-10-09T09:41:14;2.57;;;1.87;;
16025;SDS011;8117;52.488;13.460;2023-10-09T09:43:52;4.97;;;1.53;;
16025;SDS011;8117;52.488;13.460;2023-10-09T09:46:24;2.07;;;1.03;;
16025;SDS011;8117;52.488;13.460;2023-10-09T09:49:01;3.23;;;1.13;;
16025;SDS011;8117;52.488;13.460;2023-10-09T09:51:41;5.43;;;1.60;;
16025;SDS011;8117;52.488;13.460;2023-10-09T09:54:30;4.83;;;2.17;;
16025;SDS011;8117;52.488;13.460;2023-10-09T09:57:14;2.00;;;1.03;;
16025;SDS011;8117;52.488;13.460;2023-10-09T09:59:54;2.00;;;0.80;;
16025;SDS011;8117;52.488;13.460;2023-10-09T10:02:55;1.73;;;1.13;;
16025;SDS011;8117;52.488;13.460;2023-10-09T10:05:37;2.23;;;1.43;;
16025;SDS011;8117;52.488;13.460;2023-10-09T10:08:07;1.43;;;1.33;;
16025;SDS011;8117;52.488;13.460;2023-10-09T10:10:44;1.00;;;0.90;;
16025;SDS011;8117;52.488;13.460;2023-10-09T10:13:17;2.17;;;1.47;;
16025;SDS011;8117;52.488;13.460;2023-10-09T10:16:00;2.40;;;1.87;;
16025;SDS011;8117;52.488;13.460;2023-10-09T10:18:59;1.90;;;1.30;;
16025;SDS011;8117;52.488;13.460;2023-10-09T10:21:49;1.83;;;1.07;;
16025;SDS011;8117;52.488;13.460;2023-10-09T10:27:20;2.10;;;1.40;;
16025;SDS011;8117;52.488;13.460;2023-10-09T10:32:59;1.60;;;1.43;;
16025;SDS011;8117;52.488;13.460;2023-10-09T10:35:43;3.60;;;1.03;;
16025;SDS011;8117;52.488;13.460;2023-10-09T10:38:23;2.90;;;1.37;;
16025;SDS011;8117;52.488;13.460;2023-10-09T10:41:16;1.60;;;1.33;;
16025;SDS011;8117;52.488;13.460;2023-10-09T10:43:50;2.00;;;1.40;;
16025;SDS011;8117;52.488;13.460;2023-10-09T10:46:43;1.33;;;1.23;;
16025;SDS011;8117;52.488;13.460;2023-10-09T10:53:11;2.23;;;1.43;;
16025;SDS011;8117;52.488;13.460;2023-10-09T10:56:32;2.07;;;1.50;;
16025;SDS011;8117;52.488;13.460;2023-10-09T10:58:53;3.20;;;1.90;;
16025;SDS011;8117;52.488;13.460;2023-10-09T11:01:36;4.10;;;1.63;;
16025;SDS011;8117;52.488;13.460;2023-10-09T11:04:39;1.67;;;1.40;;
16025;SDS011;8117;52.488;13.460;2023-10-09T11:15:00;1.93;;;1.63;;
16025;SDS011;8117;52.488;13.460;2023-10-09T11:18:18;2.90;;;1.20;;
16025;SDS011;8117;52.488;13.460;2023-10-09T11:27:45;1.73;;;1.43;;
16025;SDS011;8117;52.488;13.460;2023-10-09T11:55:44;4.37;;;2.97;;
16025;SDS011;8117;52.488;13.460;2023-10-09T12:24:37;2.90;;;1.63;;
16025;SDS011;8117;52.488;13.460;2023-10-09T12:37:15;4.23;;;2.30;;
16025;SDS011;8117;52.488;13.460;2023-10-09T12:40:10;5.23;;;2.30;;
16025;SDS011;8117;52.488;13.460;2023-10-09T12:42:51;3.10;;;2.30;;
16025;SDS011;8117;52.488;13.460;2023-10-09T12:45:33;3.93;;;2.70;;
16025;SDS011;8117;52.488;13.460;2023-10-09T12:48:02;3.57;;;2.27;;
16025;SDS011;8117;52.488;13.460;2023-10-09T12:50:36;3.17;;;2.53;;
16025;SDS011;8117;52.488;13.460;2023-10-09T12:53:22;4.23;;;2.73;;
16025;SDS011;8117;52.488;13.460;2023-10-09T12:56:01;4.53;;;2.93;;
16025;SDS011;8117;52.488;13.460;2023-10-09T12:58:49;3.47;;;2.37;;
16025;SDS011;8117;52.488;13.460;2023-10-09T13:04:55;4.27;;;2.50;;
16025;SDS011;8117;52.488;13.460;2023-10-09T13:08:31;3.20;;;2.60;;
16025;SDS011;8117;52.488;13.460;2023-10-09T13:14:20;5.27;;;2.77;;
16025;SDS011;8117;52.488;13.460;2023-10-09T13:17:39;2.63;;;2.10;;
16025;SDS011;8117;52.488;13.460;2023-10-09T13:19:55;3.73;;;2.10;;
16025;SDS011;8117;52.488;13.460;2023-10-09T13:22:31;4.57;;;2.60;;
16025;SDS011;8117;52.488;13.460;2023-10-09T13:25:00;2.90;;;1.80;;
16025;SDS011;8117;52.488;13.460;2023-10-09T13:27:29;3.67;;;2.20;;
16025;SDS011;8117;52.488;13.460;2023-10-09T13:32:50;3.60;;;2.27;;
16025;SDS011;8117;52.488;13.460;2023-10-09T13:35:22;4.53;;;2.63;;
16025;SDS011;8117;52.488;13.460;2023-10-09T13:38:02;3.27;;;2.30;;
16025;SDS011;8117;52.488;13.460;2023-10-09T13:40:33;4.00;;;2.30;;
16025;SDS011;8117;52.488;13.460;2023-10-09T13:43:04;2.57;;;2.00;;
16025;SDS011;8117;52.488;13.460;2023-10-09T13:48:34;3.50;;;2.00;;
16025;SDS011;8117;52.488;13.460;2023-10-09T13:51:10;3.03;;;2.20;;
16025;SDS011;8117;52.488;13.460;2023-10-09T13:53:44;2.43;;;1.73;;
16025;SDS011;8117;52.488;13.460;2023-10-09T13:56:20;2.93;;;2.13;;
16025;SDS011;8117;52.488;13.460;2023-10-09T13:59:00;3.57;;;2.53;;
16025;SDS011;8117;52.488;13.460;2023-10-09T14:01:37;4.33;;;1.97;;
16025;SDS011;8117;52.488;13.460;2023-10-09T14:04:05;4.40;;;2.17;;
16025;SDS011;8117;52.488;13.460;2023-10-09T14:06:39;6.17;;;3.13;;
16025;SDS011;8117;52.488;13.460;2023-10-09T14:09:11;5.53;;;2.30;;
16025;SDS011;8117;52.488;13.460;2023-10-09T14:12:01;3.70;;;1.87;;
16025;SDS011;8117;52.488;13.460;2023-10-09T14:14:33;3.10;;;2.10;;
16025;SDS011;8117;52.488;13.460;2023-10-09T14:17:14;25.20;;;14.30;;
16025;SDS011;8117;52.488;13.460;2023-10-09T14:19:53;16.40;;;8.53;;
16025;SDS011;8117;52.488;13.460;2023-10-09T14:22:32;5.63;;;3.83;;
16025;SDS011;8117;52.488;13.460;2023-10-09T14:25:03;2.97;;;2.67;;
16025;SDS011;8117;52.488;13.460;2023-10-09T14:27:53;3.27;;;2.17;;
16025;SDS011;8117;52.488;13.460;2023-10-09T14:32:33;2.63;;;1.73;;
16025;SDS011;8117;52.488;13.460;2023-10-09T14:37:24;5.80;;;2.73;;
16025;SDS011;8117;52.488;13.460;2023-10-09T14:57:11;3.07;;;2.23;;
16025;SDS011;8117;52.488;13.460;2023-10-09T15:03:41;4.33;;;2.60;;
16025;SDS011;8117;52.488;13.460;2023-10-09T15:12:38;4.17;;;2.10;;
16025;SDS011;8117;52.488;13.460;2023-10-09T15:15:09;2.97;;;2.67;;
16025;SDS011;8117;52.488;13.460;2023-10-09T15:17:45;4.50;;;2.70;;
16025;SDS011;8117;52.488;13.460;2023-10-09T15:20:36;3.33;;;1.90;;
16025;SDS011;8117;52.488;13.460;2023-10-09T15:23:25;3.80;;;2.40;;
16025;SDS011;8117;52.488;13.460;2023-10-09T15:25:59;3.47;;;2.73;;
16025;SDS011;8117;52.488;13.460;2023-10-09T15:28:52;3.73;;;1.83;;
16025;SDS011;8117;52.488;13.460;2023-10-09T15:31:21;7.10;;;2.37;;
16025;SDS011;8117;52.488;13.460;2023-10-09T15:33:52;3.93;;;2.53;;
16025;SDS011;8117;52.488;13.460;2023-10-09T15:36:22;6.13;;;3.03;;
16025;SDS011;8117;52.488;13.460;2023-10-09T15:38:57;3.77;;;2.40;;
16025;SDS011;8117;52.488;13.460;2023-10-09T15:41:29;4.20;;;3.23;;
16025;SDS011;8117;52.488;13.460;2023-10-09T15:44:15;5.00;;;2.40;;
16025;SDS011;8117;52.488;13.460;2023-10-09T15:47:09;5.10;;;2.47;;
16025;SDS011;8117;52.488;13.460;2023-10-09T15:50:07;4.67;;;1.93;;
16025;SDS011;8117;52.488;13.460;2023-10-09T15:52:38;3.90;;;2.47;;
16025;SDS011;8117;52.488;13.460;2023-10-09T15:55:07;4.67;;;2.87;;
16025;SDS011;8117;52.488;13.460;2023-10-09T15:57:41;8.17;;;2.90;;
16025;SDS011;8117;52.488;13.460;2023-10-09T16:38:16;4.23;;;2.10;;
16025;SDS011;8117;52.488;13.460;2023-10-09T16:40:51;3.30;;;2.43;;
16025;SDS011;8117;52.488;13.460;2023-10-09T16:43:35;3.93;;;2.07;;
16025;SDS011;8117;52.488;13.460;2023-10-09T16:46:20;5.07;;;2.77;;
16025;SDS011;8117;52.488;13.460;2023-10-09T16:48:56;5.10;;;2.23;;
16025;SDS011;8117;52.488;13.460;2023-10-09T16:51:36;5.23;;;1.93;;
16025;SDS011;8117;52.488;13.460;2023-10-09T16:54:21;5.37;;;3.03;;
16025;SDS011;8117;52.488;13.460;2023-10-09T16:57:05;4.47;;;2.57;;
16025;SDS011;8117;52.488;13.460;2023-10-09T16:59:35;3.00;;;2.20;;
16025;SDS011;8117;52.488;13.460;2023-10-09T17:02:05;3.53;;;3.00;;
16025;SDS011;8117;52.488;13.460;2023-10-09T17:04:34;4.73;;;3.33;;
16025;SDS011;8117;52.488;13.460;2023-10-09T17:07:11;3.40;;;2.20;;
16025;SDS011;8117;52.488;13.460;2023-10-09T17:09:41;5.33;;;2.80;;
16025;SDS011;8117;52.488;13.460;2023-10-09T17:12:12;4.40;;;2.97;;
16025;SDS011;8117;52.488;13.460;2023-10-09T17:14:42;4.67;;;2.80;;
16025;SDS011;8117;52.488;13.460;2023-10-09T17:17:09;4.17;;;2.67;;
16025;SDS011;8117;52.488;13.460;2023-10-09T17:19:36;3.00;;;2.10;;
16025;SDS011;8117;52.488;13.460;2023-10-09T17:22:05;3.47;;;2.50;;
16025;SDS011;8117;52.488;13.460;2023-10-09T17:24:43;4.63;;;3.33;;
16025;SDS011;8117;52.488;13.460;2023-10-09T17:27:14;4.57;;;2.43;;
16025;SDS011;8117;52.488;13.460;2023-10-09T17:29:44;2.63;;;1.83;;
16025;SDS011;8117;52.488;13.460;2023-10-09T17:32:28;3.27;;;1.87;;
16025;SDS011;8117;52.488;13.460;2023-10-09T17:35:02;3.37;;;2.37;;
16025;SDS011;8117;52.488;13.460;2023-10-09T17:37:50;1.80;;;1.63;;
16025;SDS011;8117;52.488;13.460;2023-10-09T17:40:22;3.83;;;2.67;;
16025;SDS011;8117;52.488;13.460;2023-10-09T17:42:51;2.33;;;2.13;;
16025;SDS011;8117;52.488;13.460;2023-10-09T17:45:20;2.67;;;2.43;;
16025;SDS011;8117;52.488;13.460;2023-10-09T17:47:55;1.93;;;1.83;;
16025;SDS011;8117;52.488;13.460;2023-10-09T17:50:27;3.03;;;2.30;;
16025;SDS011;8117;52.488;13.460;2023-10-09T17:52:55;3.60;;;2.20;;
16025;SDS011;8117;52.488;13.460;2023-10-09T17:55:36;3.17;;;2.53;;
16025;SDS011;8117;52.488;13.460;2023-10-09T17:58:22;4.20;;;2.60;;
16025;SDS011;8117;52.488;13.460;2023-10-09T18:03:54;3.87;;;2.50;;
16025;SDS011;8117;52.488;13.460;2023-10-09T18:09:35;4.37;;;2.40;;
16025;SDS011;8117;52.488;13.460;2023-10-09T18:12:09;3.57;;;2.13;;
16025;SDS011;8117;52.488;13.460;2023-10-09T18:15:08;3.57;;;2.30;;
16025;SDS011;8117;52.488;13.460;2023-10-09T18:25:05;5.73;;;2.90;;
16025;SDS011;8117;52.488;13.460;2023-10-09T18:27:35;5.07;;;2.20;;
16025;SDS011;8117;52.488;13.460;2023-10-09T18:30:03;4.13;;;2.37;;
16025;SDS011;8117;52.488;13.460;2023-10-09T18:32:34;3.07;;;2.20;;
16025;SDS011;8117;52.488;13.460;2023-10-09T18:35:01;2.87;;;2.00;;
16025;SDS011;8117;52.488;13.460;2023-10-09T18:37:28;3.73;;;2.70;;
16025;SDS011;8117;52.488;13.460;2023-10-09T18:39:58;6.97;;;2.90;;
16025;SDS011;8117;52.488;13.460;2023-10-09T18:42:25;4.43;;;2.57;;
16025;SDS011;8117;52.488;13.460;2023-10-09T18:44:55;3.77;;;2.43;;
16025;SDS011;8117;52.488;13.460;2023-10-09T18:47:34;5.30;;;2.20;;
16025;SDS011;8117;52.488;13.460;2023-10-09T18:50:06;4.83;;;2.53;;
16025;SDS011;8117;52.488;13.460;2023-10-09T18:52:44;6.00;;;2.30;;
16025;SDS011;8117;52.488;13.460;2023-10-09T18:55:11;3.67;;;2.33;;
16025;SDS011;8117;52.488;13.460;2023-10-09T18:57:43;5.13;;;3.07;;
16025;SDS011;8117;52.488;13.460;2023-10-09T19:00:12;8.30;;;2.93;;
16025;SDS011;8117;52.488;13.460;2023-10-09T19:02:45;3.93;;;2.60;;
16025;SDS011;8117;52.488;13.460;2023-10-09T19:05:13;4.00;;;2.70;;
16025;SDS011;8117;52.488;13.460;2023-10-09T19:07:39;4.60;;;2.43;;
16025;SDS011;8117;52.488;13.460;2023-10-09T19:10:07;6.70;;;2.50;;
16025;SDS011;8117;52.488;13.460;2023-10-09T19:12:34;4.37;;;2.70;;